Details From GQPP - NOUADHIBOU
To GOSS - SAINT LOUIS
Flight Number -
Tags generated
Created
Modified
Stats Distance 308 nm / 570 km
Max Altitude 31,600 ft / 9,632 m
Waypoints 6
Social Downloads 0
Likes 0
Share VATSIM

Download

Looking for another format? Having issues loading an existing format? Contact us
Advertisement - Login to hide

Notes

Basic altitude profile: - Ascent Rate: 2500ft/min - Ascent Speed: 250kts - Cruise Altitude: 35000ft - Cruise Speed: 420kts - Descent Rate: 1500ft/min - Descent Speed: 250kts Options: - Use NATs: yes - Use PACOTS: yes - Use low airways: yes - Use high airways: yes

Route

GQPP KISBA UA600 KC R975F SLO GOSS

ID Type Via Altitude Latitude Longitude Leg Dist Tot Dist Heading (true) Name
O GQPP APT - 0 ft / 0 m 20.93293˚ -17.02991˚ - 0 nm - NOUADHIBOU
KISBA FIX - 31,600 ft / 9,632 m 19.50000˚ -16.48528˚ 91 nm 91 nm 160° / 160° -
KC VOR UA600 (AWY-HI) 27,000 ft / 8,230 m 18.09158˚ -15.94828˚ 89 nm 181 nm 160° / 160° NOUAKCHOTT VOR-DME
ARBEN FIX R975F (AWY-LO) 5,100 ft / 1,554 m 16.43861˚ -16.36111˚ 102 nm 283 nm 193° / 193° -
SLO NDB R975F (AWY-LO) 3,500 ft / 1,067 m 16.04908˚ -16.45714˚ 24 nm 307 nm 193° / 193° SAINT LOUIS NDB
O GOSS APT - 0 ft / 0 m 16.04831˚ -16.45965˚ 0 nm 307 nm 252° / 252° SAINT LOUIS

Altitude Profile

Advertisement - Login to hide

Weather


0- 5 10 15 20 25 30 35+ Temperature / ° C

Clouds and Precipitation
Forecast for 2017-12-11 06:00 UTC. Updated an hour ago

Ground ~20,000 ft ~40,000 ft Winds

GQPP

Details ICAO GQPP (NDB)
Name NOUADHIBOU
Region Mauritania
Timezone Africa/Nouakchott (UTC+0.0)
Stats Elevation 16 ft / 5 m (AMSL)
Location 20.932931° -17.029914°
Runways 1
Magnetic Variation 6.048° W

METAR

GQPP 110200Z 01008KT 6000 NSC 16/09 Q1019 NOSIG

Decode

TAF

TAF GQPP 102300Z 1100/1124 36008KT 6000 NSC BECMG 1107/1110 06014KT BECMG 1115/1118 34015KT

Decode

Departure Runways

ID Width Length Bearing (true) Bearing (mag) Surface Threshold Offset Overrun Length
02 148 ft / 45 m 7,995 ft / 2,437 m 14.33° 20.38° Asphalt 0 ft / 0 m 0 ft / 0 m
20 148 ft / 45 m 7,995 ft / 2,437 m 194.33° 200.38° Asphalt 0 ft / 0 m 0 ft / 0 m

GOSS

Details ICAO GOSS (XLS)
Name SAINT LOUIS
Region Senegal
Timezone Africa/Dakar (UTC+0.0)
Stats Elevation 9 ft / 3 m (AMSL)
Location 16.048306° -16.459655°
Runways 2
Magnetic Variation 6.648° W

METAR

Not found

TAF

TAF GOSS 102330Z 1100/1124 05008KT 7000 NSC

Decode

Destination Runways

ID Width Length Bearing (true) Bearing (mag) Surface Threshold Offset Overrun Length
01 125 ft / 38 m 4,325 ft / 1,318 m 4.26° 10.91° Dirt 0 ft / 0 m 0 ft / 0 m
18 100 ft / 30 m 6,261 ft / 1,908 m 172.61° 179.26° Asphalt 0 ft / 0 m 330 ft / 101 m
19 125 ft / 38 m 4,325 ft / 1,318 m 184.26° 190.91° Dirt 0 ft / 0 m 0 ft / 0 m
36 100 ft / 30 m 6,261 ft / 1,908 m 352.61° 359.26° Asphalt 0 ft / 0 m 330 ft / 101 m

Popular Alternatives